Park Falls, Wisconsin
Current Conditions -  °F | °C
As of 8:15 AM on Friday 19 Dec 2014 (Local Time) from KPBH Reporting Station
Overcast Overcast  
Wind Chill: 21°   Ceiling: 800
Heat Index: 21°   Visibility: 10mi
Dew Point: 18°   Wind: 3mph
Humidity: 90%   Direction: 180°S
Pressure: 30.23"   Gusts: NA
Location:  45.93°N, 90.44°W
Report Text: KPBH 191415Z AUTO 18003KT 10SM OVC008 M06/M08 A3023 RMK AO2 T10621076
Loading
Personal Weather Stations






























Interactive Weather Map New forecast layout! Learn more

10-Day Weather Forecast

Advertisements
Track Severe Weather on mobile